createdAt,value
2023-08-29T00:02:33.091Z,26.00
2023-08-29T00:07:37.522Z,26.22
2023-08-29T00:12:42.370Z,26.22
2023-08-29T00:17:45.651Z,26.20
2023-08-29T00:22:50.029Z,26.13
2023-08-29T00:27:53.095Z,26.03
2023-08-29T00:32:56.044Z,25.95
2023-08-29T00:38:01.393Z,25.91
2023-08-29T00:43:04.927Z,25.91
2023-08-29T00:48:09.559Z,25.91
2023-08-29T00:53:16.783Z,25.89
2023-08-29T00:58:20.296Z,25.85
2023-08-29T01:03:23.973Z,25.80
2023-08-29T01:08:28.372Z,25.77
2023-08-29T01:13:37.567Z,25.70
2023-08-29T01:18:40.786Z,25.67
2023-08-29T01:23:52.792Z,25.59
2023-08-29T01:28:58.931Z,25.58
2023-08-29T01:34:03.355Z,25.57
2023-08-29T01:39:06.413Z,25.56
2023-08-29T01:44:11.008Z,25.61
2023-08-29T01:49:14.244Z,25.69
2023-08-29T01:54:17.309Z,25.61
2023-08-29T01:59:21.769Z,25.53
2023-08-29T02:04:26.096Z,25.51
2023-08-29T02:09:29.106Z,25.44
2023-08-29T02:14:34.685Z,25.45
2023-08-29T02:19:38.858Z,25.43
2023-08-29T02:24:41.825Z,25.37
2023-08-29T02:29:46.252Z,25.37
2023-08-29T02:34:49.373Z,25.31
2023-08-29T02:39:52.363Z,25.35
2023-08-29T02:44:58.464Z,25.28
2023-08-29T02:50:01.492Z,25.28
2023-08-29T02:55:07.248Z,25.21
2023-08-29T03:00:12.825Z,25.26
2023-08-29T03:05:16.637Z,25.29
2023-08-29T03:10:19.667Z,25.18
2023-08-29T03:15:24.217Z,25.15
2023-08-29T03:20:27.408Z,25.15
2023-08-29T03:25:30.385Z,25.13
2023-08-29T03:30:34.903Z,25.15
2023-08-29T03:35:37.854Z,25.09
2023-08-29T03:40:42.279Z,25.13
2023-08-29T03:45:46.567Z,25.14
2023-08-29T03:50:51.320Z,25.09
2023-08-29T03:55:54.311Z,25.04
2023-08-29T04:00:59.449Z,25.04
2023-08-29T04:06:02.506Z,25.03
2023-08-29T04:11:05.928Z,25.00
2023-08-29T04:16:10.570Z,24.98
2023-08-29T04:21:13.610Z,24.93
2023-08-29T04:26:16.614Z,24.84
2023-08-29T04:31:22.276Z,24.73
2023-08-29T04:36:26.551Z,24.75
2023-08-29T04:41:29.536Z,24.66
2023-08-29T04:46:34.295Z,24.70
2023-08-29T04:51:37.380Z,24.69
2023-08-29T04:56:40.455Z,24.67
2023-08-29T05:01:49.707Z,24.59
2023-08-29T05:06:54.002Z,24.61
2023-08-29T05:11:57.123Z,24.61
2023-08-29T05:17:03.255Z,24.60
2023-08-29T05:22:06.888Z,24.59
2023-08-29T05:27:11.585Z,23.88
2023-08-29T05:32:20.179Z,23.90
2023-08-29T05:37:28.290Z,24.03
2023-08-29T05:42:37.169Z,24.01
2023-08-29T05:47:46.480Z,24.07
2023-08-29T05:52:55.232Z,24.16
2023-08-29T05:58:03.857Z,24.22
2023-08-29T06:03:17.525Z,24.25
2023-08-29T06:08:24.327Z,24.27
2023-08-29T06:13:32.096Z,24.31
2023-08-29T06:18:42.729Z,24.34
2023-08-29T06:23:51.372Z,24.33
2023-08-29T06:29:06.653Z,24.33
2023-08-29T06:34:22.634Z,24.26
2023-08-29T06:39:34.849Z,24.02
2023-08-29T06:44:50.959Z,23.68
2023-08-29T06:50:08.435Z,23.57
2023-08-29T06:55:25.961Z,23.45
2023-08-29T07:00:44.533Z,23.25
2023-08-29T07:06:01.059Z,23.37
2023-08-29T07:11:16.356Z,23.21
2023-08-29T07:16:30.534Z,23.09
2023-08-29T07:21:45.526Z,23.13
2023-08-29T07:27:02.034Z,23.10
2023-08-29T07:32:20.432Z,23.11
2023-08-29T07:37:38.012Z,23.11
2023-08-29T07:42:53.959Z,22.73
2023-08-29T07:48:09.773Z,22.73
2023-08-29T07:53:29.670Z,22.78
2023-08-29T07:58:41.616Z,22.78
2023-08-29T08:03:58.602Z,22.75
2023-08-29T08:09:18.688Z,22.71
2023-08-29T08:14:35.705Z,22.69
2023-08-29T08:19:51.251Z,22.75
2023-08-29T08:25:05.538Z,22.72
2023-08-29T08:30:22.006Z,22.64
2023-08-29T08:35:44.443Z,22.44
2023-08-29T08:41:08.789Z,22.31
2023-08-29T08:46:24.828Z,22.49
2023-08-29T08:51:36.893Z,22.55
2023-08-29T08:56:56.838Z,22.64
2023-08-29T09:02:15.816Z,22.55
2023-08-29T09:07:33.845Z,22.52
2023-08-29T09:13:04.205Z,22.46
2023-08-29T09:18:29.556Z,22.52
2023-08-29T09:23:48.892Z,22.46
2023-08-29T09:29:07.067Z,22.61
2023-08-29T09:34:33.224Z,22.49
2023-08-29T09:39:46.506Z,22.41
2023-08-29T09:45:04.969Z,22.33
2023-08-29T09:50:19.313Z,22.15
2023-08-29T09:55:32.375Z,22.19
2023-08-29T10:00:42.574Z,22.09
2023-08-29T10:05:52.118Z,22.16
2023-08-29T10:11:00.844Z,22.00
2023-08-29T10:16:12.308Z,22.04
2023-08-29T10:21:23.053Z,22.05
2023-08-29T10:26:29.063Z,22.02
2023-08-29T10:31:35.734Z,21.54
2023-08-29T10:36:41.319Z,21.62
2023-08-29T10:41:49.412Z,21.73
2023-08-29T10:46:55.870Z,21.79
2023-08-29T10:52:10.049Z,21.67
2023-08-29T10:57:29.870Z,21.70
2023-08-29T11:02:36.339Z,21.78
2023-08-29T11:07:40.577Z,21.62
2023-08-29T11:13:10.615Z,21.56
2023-08-29T11:18:22.418Z,21.69
2023-08-29T11:23:26.154Z,21.88
2023-08-29T11:28:29.293Z,22.02
2023-08-29T11:33:35.154Z,21.84
2023-08-29T11:38:38.785Z,21.87
2023-08-29T11:43:56.553Z,21.90
2023-08-29T11:49:15.114Z,21.90
2023-08-29T11:54:41.706Z,21.98
2023-08-29T11:59:46.416Z,21.89
2023-08-29T12:04:56.775Z,21.99
2023-08-29T12:10:16.955Z,22.13
2023-08-29T12:15:43.941Z,22.06
2023-08-29T12:20:50.071Z,22.09
2023-08-29T12:25:53.293Z,22.14
2023-08-29T12:30:57.814Z,22.14
2023-08-29T12:36:04.270Z,22.15
2023-08-29T12:41:09.245Z,22.12
2023-08-29T12:46:14.409Z,22.03
2023-08-29T12:51:18.942Z,22.03
2023-08-29T12:56:26.844Z,22.13
2023-08-29T13:01:33.533Z,22.17
2023-08-29T13:06:39.410Z,21.94
2023-08-29T13:11:44.931Z,22.19
2023-08-29T13:16:49.477Z,22.25
2023-08-29T13:21:54.398Z,22.47
2023-08-29T13:26:57.971Z,22.64
2023-08-29T13:32:01.512Z,22.82
2023-08-29T13:37:06.989Z,22.73
2023-08-29T13:42:15.662Z,22.44
2023-08-29T13:47:26.575Z,22.17
2023-08-29T13:52:40.430Z,22.54
2023-08-29T13:57:47.340Z,22.80
2023-08-29T14:02:51.618Z,22.92
2023-08-29T14:07:56.101Z,23.09
2023-08-29T14:13:02.004Z,23.16
2023-08-29T14:18:09.374Z,23.28
2023-08-29T14:23:14.214Z,23.13
2023-08-29T14:28:17.480Z,23.30
2023-08-29T14:33:20.932Z,23.38
2023-08-29T14:38:25.376Z,23.38
2023-08-29T14:43:28.510Z,23.49
2023-08-29T14:48:31.624Z,23.42
2023-08-29T14:53:36.694Z,23.59
2023-08-29T14:58:39.833Z,23.64
2023-08-29T15:03:43.157Z,23.62
2023-08-29T15:08:48.518Z,23.67
2023-08-29T15:13:51.600Z,23.78
2023-08-29T15:18:55.244Z,23.54
2023-08-29T15:23:59.782Z,23.67
2023-08-29T15:29:04.827Z,23.57
2023-08-29T15:34:08.349Z,23.50
2023-08-29T15:39:13.186Z,23.64
2023-08-29T15:44:16.273Z,23.71
2023-08-29T15:49:19.512Z,23.74
2023-08-29T15:54:24.310Z,23.74
2023-08-29T15:59:28.912Z,23.76
2023-08-29T16:04:32.536Z,23.69
2023-08-29T16:09:37.516Z,23.64
2023-08-29T16:14:40.630Z,23.61
2023-08-29T16:19:45.486Z,23.42
2023-08-29T16:24:50.103Z,23.40
2023-08-29T16:29:55.659Z,23.23
2023-08-29T16:34:59.495Z,23.18
2023-08-29T16:40:07.036Z,23.00
2023-08-29T16:45:11.846Z,23.19
2023-08-29T16:50:15.937Z,23.17
2023-08-29T16:55:21.616Z,23.19
2023-08-29T17:00:24.994Z,23.24
2023-08-29T17:05:30.213Z,23.31
2023-08-29T17:10:34.983Z,23.37
2023-08-29T17:15:38.331Z,23.15
2023-08-29T17:20:41.590Z,23.02
2023-08-29T17:25:45.915Z,23.12
2023-08-29T17:30:49.164Z,23.43
2023-08-29T17:35:52.081Z,23.63
2023-08-29T17:40:59.503Z,23.77
2023-08-29T17:46:04.351Z,23.71
2023-08-29T17:51:07.569Z,23.81
2023-08-29T17:56:12.082Z,23.95
2023-08-29T18:01:15.657Z,23.73
2023-08-29T18:06:25.190Z,23.64
2023-08-29T18:11:30.141Z,23.80
2023-08-29T18:16:33.490Z,23.96
2023-08-29T18:21:36.528Z,24.05
2023-08-29T18:26:41.356Z,24.16
2023-08-29T18:31:44.540Z,24.15
2023-08-29T18:36:47.473Z,24.30
2023-08-29T18:41:51.776Z,24.34
2023-08-29T18:46:55.029Z,24.50
2023-08-29T18:51:58.419Z,24.59
2023-08-29T18:57:03.573Z,24.63
2023-08-29T19:02:07.667Z,24.62
2023-08-29T19:07:11.644Z,24.68
2023-08-29T19:12:16.564Z,24.73
2023-08-29T19:17:19.908Z,24.85
2023-08-29T19:22:22.947Z,24.91
2023-08-29T19:27:29.092Z,25.00
2023-08-29T19:32:32.536Z,25.03
2023-08-29T19:37:35.867Z,25.05
2023-08-29T19:42:40.329Z,25.07
2023-08-29T19:47:43.840Z,25.05
2023-08-29T19:52:47.536Z,24.97
2023-08-29T19:57:51.990Z,24.94
2023-08-29T20:02:55.148Z,25.15
2023-08-29T20:08:04.400Z,25.29
2023-08-29T20:13:10.455Z,25.30
2023-08-29T20:18:13.768Z,25.36
2023-08-29T20:23:19.705Z,25.41
2023-08-29T20:28:24.495Z,25.34
2023-08-29T20:33:28.074Z,25.40
2023-08-29T20:38:30.935Z,25.38
2023-08-29T20:43:35.369Z,25.01
2023-08-29T20:48:38.414Z,25.17
2023-08-29T20:53:42.057Z,25.29
2023-08-29T20:58:46.694Z,25.46
2023-08-29T21:03:49.843Z,25.55
2023-08-29T21:08:53.191Z,25.55
2023-08-29T21:13:59.308Z,25.44
2023-08-29T21:19:02.312Z,25.61
2023-08-29T21:24:05.512Z,25.56
2023-08-29T21:29:10.375Z,25.64
2023-08-29T21:34:13.463Z,25.77
2023-08-29T21:39:16.861Z,25.78
2023-08-29T21:44:21.480Z,25.81
2023-08-29T21:49:24.656Z,25.81
2023-08-29T21:54:27.738Z,25.88
2023-08-29T21:59:32.118Z,25.92
2023-08-29T22:04:35.253Z,25.94
2023-08-29T22:09:38.681Z,25.94
2023-08-29T22:14:43.020Z,25.82
2023-08-29T22:19:46.168Z,25.87
2023-08-29T22:24:49.209Z,25.80
2023-08-29T22:29:53.615Z,25.84
2023-08-29T22:34:56.672Z,25.57
2023-08-29T22:40:00.016Z,25.65
2023-08-29T22:45:05.317Z,25.59
2023-08-29T22:50:11.200Z,25.55
2023-08-29T22:55:14.994Z,25.51
2023-08-29T23:00:21.664Z,25.38
2023-08-29T23:05:24.690Z,25.14
2023-08-29T23:10:28.067Z,25.26
2023-08-29T23:15:32.398Z,25.21
2023-08-29T23:20:35.298Z,25.25
2023-08-29T23:25:38.361Z,25.14
2023-08-29T23:30:42.632Z,24.97
2023-08-29T23:35:45.444Z,24.94
2023-08-29T23:40:49.808Z,24.90
2023-08-29T23:45:54.008Z,24.88
2023-08-29T23:50:56.939Z,24.88
2023-08-29T23:56:00.280Z,24.88
